createdAt,value
2023-02-13T00:01:28.814Z,100058.41
2023-02-13T00:03:58.387Z,100051.88
2023-02-13T00:06:26.851Z,100049.16
2023-02-13T00:08:55.094Z,100054.84
2023-02-13T00:11:23.470Z,100048.09
2023-02-13T00:13:51.675Z,100059.69
2023-02-13T00:16:19.732Z,100064.47
2023-02-13T00:18:47.783Z,100063.81
2023-02-13T00:21:18.322Z,100057.44
2023-02-13T00:23:46.916Z,100062.31
2023-02-13T00:26:17.095Z,100052.53
2023-02-13T00:28:45.886Z,100064.78
2023-02-13T00:31:17.028Z,100045.16
2023-02-13T00:33:45.235Z,100060.59
2023-02-13T00:36:16.229Z,100062.28
2023-02-13T00:38:47.352Z,100061.69
2023-02-13T00:41:19.654Z,100066.50
2023-02-13T00:43:48.869Z,100069.53
2023-02-13T00:46:17.479Z,100061.63
2023-02-13T00:48:46.150Z,100066.09
2023-02-13T00:51:15.254Z,100068.47
2023-02-13T00:53:46.119Z,100074.69
2023-02-13T00:56:16.478Z,100070.22
2023-02-13T00:58:44.693Z,100076.63
2023-02-13T01:01:13.336Z,100074.50
2023-02-13T01:03:41.718Z,100073.84
2023-02-13T01:06:10.199Z,100073.50
2023-02-13T01:08:40.946Z,100073.00
2023-02-13T01:11:09.128Z,100079.22
2023-02-13T01:13:39.443Z,100070.28
2023-02-13T01:16:08.484Z,100074.81
2023-02-13T01:18:36.540Z,100066.31
2023-02-13T01:21:08.201Z,100067.34
2023-02-13T01:23:38.772Z,100070.31
2023-02-13T01:26:08.713Z,100068.03
2023-02-13T01:28:38.502Z,100072.28
2023-02-13T01:31:06.978Z,100072.84
2023-02-13T01:33:36.230Z,100067.16
2023-02-13T01:36:08.393Z,100070.25
2023-02-13T01:38:36.925Z,100068.28
2023-02-13T01:41:05.469Z,100067.44
2023-02-13T01:43:51.153Z,100056.47
2023-02-13T01:46:23.989Z,100066.78
2023-02-13T01:48:55.545Z,100062.69
2023-02-13T01:51:28.479Z,100072.84
2023-02-13T01:54:02.075Z,100075.19
2023-02-13T01:56:32.687Z,100077.63
2023-02-13T01:59:06.756Z,100072.25
2023-02-13T02:01:36.274Z,100075.75
2023-02-13T02:04:10.696Z,100075.59
2023-02-13T02:06:44.345Z,100060.81
2023-02-13T02:09:17.125Z,100067.63
2023-02-13T02:11:54.240Z,100062.63
2023-02-13T02:14:24.258Z,100060.69
2023-02-13T02:16:54.521Z,100046.66
2023-02-13T02:19:32.140Z,100054.34
2023-02-13T02:22:29.713Z,100055.75
2023-02-13T02:25:26.553Z,100067.75
2023-02-13T02:28:21.185Z,100061.66
2023-02-13T02:31:37.881Z,100062.38
2023-02-13T02:34:16.995Z,100060.66
2023-02-13T02:37:03.773Z,100055.44
2023-02-13T02:39:38.906Z,100045.03
2023-02-13T02:42:19.729Z,100063.53
2023-02-13T02:44:58.988Z,100070.00
2023-02-13T02:47:49.598Z,100062.91
2023-02-13T02:50:28.420Z,100066.06
2023-02-13T02:53:07.512Z,100063.97
2023-02-13T02:55:43.146Z,100064.03
2023-02-13T02:58:36.456Z,100053.94
2023-02-13T03:01:25.079Z,100056.41
2023-02-13T03:04:14.353Z,100063.00
2023-02-13T03:06:48.570Z,100049.25
2023-02-13T03:09:39.596Z,100053.59
2023-02-13T03:12:26.978Z,100057.09
2023-02-13T03:14:55.538Z,100052.75
2023-02-13T03:17:41.100Z,100063.72
2023-02-13T03:20:34.625Z,100056.69
2023-02-13T03:23:15.123Z,100058.34
2023-02-13T03:26:02.248Z,100064.25
2023-02-13T03:28:56.060Z,100067.69
2023-02-13T03:31:34.157Z,100054.91
2023-02-13T03:34:06.026Z,100064.25
2023-02-13T03:37:02.019Z,100061.69
2023-02-13T03:39:40.513Z,100068.38
2023-02-13T03:42:13.722Z,100069.72
2023-02-13T03:44:46.192Z,100068.94
2023-02-13T03:47:16.167Z,100066.88
2023-02-13T03:50:06.181Z,100067.75
2023-02-13T03:52:39.707Z,100076.13
2023-02-13T03:55:31.489Z,100065.94
2023-02-13T03:58:21.339Z,100072.97
2023-02-13T04:00:53.248Z,100073.13
2023-02-13T04:03:28.012Z,100070.06
2023-02-13T04:06:02.986Z,100082.84
2023-02-13T04:08:31.275Z,100085.53
2023-02-13T04:11:08.977Z,100084.72
2023-02-13T04:13:44.154Z,100090.63
2023-02-13T04:16:18.051Z,100084.41
2023-02-13T04:18:46.841Z,100091.34
2023-02-13T04:21:15.413Z,100085.84
2023-02-13T04:23:44.925Z,100088.63
2023-02-13T04:26:19.707Z,100083.31
2023-02-13T04:28:49.103Z,100082.19
2023-02-13T04:31:18.373Z,100073.63
2023-02-13T04:33:47.099Z,100082.13
2023-02-13T04:36:15.587Z,100080.22
2023-02-13T04:38:45.564Z,100073.91
2023-02-13T04:41:15.847Z,100081.72
2023-02-13T04:43:44.115Z,100086.38
2023-02-13T04:46:12.876Z,100082.66
2023-02-13T04:48:41.470Z,100080.19
2023-02-13T04:51:09.941Z,100080.97
2023-02-13T04:53:38.178Z,100072.91
2023-02-13T04:56:06.815Z,100087.25
2023-02-13T04:58:36.437Z,100083.06
2023-02-13T05:01:12.473Z,100080.31
2023-02-13T05:03:40.703Z,100091.25
2023-02-13T05:06:10.532Z,100069.88
2023-02-13T05:08:39.108Z,100081.28
2023-02-13T05:11:07.750Z,100075.25
2023-02-13T05:13:38.319Z,100082.94
2023-02-13T05:16:07.738Z,100082.03
2023-02-13T05:18:36.077Z,100093.94
2023-02-13T05:21:21.854Z,100088.84
2023-02-13T05:23:50.642Z,100087.06
2023-02-13T05:26:19.232Z,100090.41
2023-02-13T05:29:06.869Z,100101.09
2023-02-13T05:31:36.561Z,100087.81
2023-02-13T05:34:05.499Z,100091.81
2023-02-13T05:36:33.997Z,100104.16
2023-02-13T05:39:03.364Z,100103.31
2023-02-13T05:41:32.509Z,100103.13
2023-02-13T05:44:12.247Z,100112.50
2023-02-13T05:46:45.456Z,100101.91
2023-02-13T05:49:18.211Z,100101.91
2023-02-13T05:51:47.624Z,100117.88
2023-02-13T05:54:16.741Z,100113.44
2023-02-13T05:56:45.209Z,100114.81
2023-02-13T05:59:15.300Z,100118.38
2023-02-13T06:01:43.814Z,100111.25
2023-02-13T06:04:12.434Z,100122.91
2023-02-13T06:06:40.696Z,100123.75
2023-02-13T06:09:08.979Z,100124.28
2023-02-13T06:11:37.673Z,100107.94
2023-02-13T06:14:06.161Z,100114.28
2023-02-13T06:16:36.302Z,100129.06
2023-02-13T06:19:05.327Z,100129.31
2023-02-13T06:21:38.144Z,100130.88
2023-02-13T06:24:07.614Z,100133.50
2023-02-13T06:26:37.393Z,100140.91
2023-02-13T06:29:06.894Z,100130.41
2023-02-13T06:31:37.387Z,100144.34
2023-02-13T06:34:06.016Z,100140.59
2023-02-13T06:36:37.700Z,100141.47
2023-02-13T06:39:06.370Z,100138.75
2023-02-13T06:41:35.101Z,100141.25
2023-02-13T06:44:03.227Z,100149.09
2023-02-13T06:46:31.769Z,100144.81
2023-02-13T06:49:01.621Z,100153.97
2023-02-13T06:51:30.133Z,100151.47
2023-02-13T06:53:58.901Z,100149.72
2023-02-13T06:56:27.401Z,100168.16
2023-02-13T06:58:58.396Z,100163.69
2023-02-13T07:01:26.932Z,100166.84
2023-02-13T07:03:55.432Z,100164.66
2023-02-13T07:06:25.219Z,100171.44
2023-02-13T07:08:56.018Z,100171.31
2023-02-13T07:11:26.086Z,100169.78
2023-02-13T07:13:54.775Z,100173.84
2023-02-13T07:16:23.368Z,100177.47
2023-02-13T07:18:51.734Z,100173.16
2023-02-13T07:21:20.029Z,100163.56
2023-02-13T07:23:49.452Z,100174.50
2023-02-13T07:26:17.619Z,100177.44
2023-02-13T07:28:45.950Z,100170.59
2023-02-13T07:31:15.111Z,100166.59
2023-02-13T07:33:46.379Z,100163.22
2023-02-13T07:36:16.692Z,100172.69
2023-02-13T07:38:45.049Z,100170.06
2023-02-13T07:41:15.771Z,100172.59
2023-02-13T07:43:44.176Z,100178.69
2023-02-13T07:46:12.250Z,100179.47
2023-02-13T07:48:40.633Z,100166.78
2023-02-13T07:51:08.900Z,100173.78
2023-02-13T07:53:37.505Z,100176.41
2023-02-13T07:56:09.875Z,100186.25
2023-02-13T07:58:41.360Z,100185.19
2023-02-13T08:01:10.554Z,100190.13
2023-02-13T08:03:39.304Z,100184.31
2023-02-13T08:06:08.847Z,100184.84
2023-02-13T08:08:38.485Z,100182.19
2023-02-13T08:11:26.868Z,100182.31
2023-02-13T08:13:56.606Z,100178.50
2023-02-13T08:16:25.221Z,100179.97
2023-02-13T08:18:53.786Z,100185.56
2023-02-13T08:21:22.367Z,100181.75
2023-02-13T08:23:52.125Z,100171.41
2023-02-13T08:26:20.858Z,100183.44
2023-02-13T08:28:49.045Z,100184.81
2023-02-13T08:31:19.225Z,100183.22
2023-02-13T08:33:50.843Z,100179.22
2023-02-13T08:36:21.358Z,100178.56
2023-02-13T08:38:49.999Z,100176.03
2023-02-13T08:41:21.044Z,100179.47
2023-02-13T08:43:50.010Z,100174.94
2023-02-13T08:46:20.836Z,100179.78
2023-02-13T08:48:49.268Z,100185.97
2023-02-13T08:51:17.533Z,100164.19
2023-02-13T08:53:45.601Z,100186.75
2023-02-13T08:56:15.417Z,100184.50
2023-02-13T08:58:43.977Z,100180.47
2023-02-13T09:01:12.807Z,100184.81
2023-02-13T09:03:45.966Z,100179.25
2023-02-13T09:06:14.446Z,100181.25
2023-02-13T09:08:42.729Z,100176.53
2023-02-13T09:11:11.942Z,100176.63
2023-02-13T09:13:40.008Z,100174.63
2023-02-13T09:16:11.804Z,100185.09
2023-02-13T09:18:41.777Z,100181.34
2023-02-13T09:21:12.739Z,100178.44
2023-02-13T09:23:42.436Z,100175.25
2023-02-13T09:26:15.185Z,100177.66
2023-02-13T09:28:44.112Z,100165.00
2023-02-13T09:31:15.568Z,100165.06
2023-02-13T09:33:46.844Z,100164.53
2023-02-13T09:36:19.349Z,100166.41
2023-02-13T09:38:48.414Z,100177.38
2023-02-13T09:41:19.887Z,100165.22
2023-02-13T09:43:52.633Z,100179.31
2023-02-13T09:46:25.308Z,100174.88
2023-02-13T09:48:58.710Z,100185.06
2023-02-13T09:51:28.572Z,100183.13
2023-02-13T09:54:01.026Z,100180.75
2023-02-13T09:56:42.290Z,100171.53
2023-02-13T09:59:22.879Z,100175.91
2023-02-13T10:01:55.392Z,100184.25
2023-02-13T10:04:39.047Z,100170.97
2023-02-13T10:07:24.757Z,100159.66
2023-02-13T10:09:59.886Z,100156.25
2023-02-13T10:12:46.395Z,100167.78
2023-02-13T10:15:23.195Z,100166.66
2023-02-13T10:17:57.917Z,100158.81
2023-02-13T10:20:33.779Z,100158.44
2023-02-13T10:23:12.425Z,100149.66
2023-02-13T10:25:48.703Z,100152.00
2023-02-13T10:28:31.236Z,100143.72
2023-02-13T10:31:07.134Z,100155.50
2023-02-13T10:33:42.125Z,100154.91
2023-02-13T10:36:23.494Z,100148.53
2023-02-13T10:38:58.669Z,100143.16
2023-02-13T10:41:41.243Z,100139.09
2023-02-13T10:44:32.621Z,100132.88
2023-02-13T10:47:15.082Z,100133.50
2023-02-13T10:49:53.614Z,100131.38
2023-02-13T10:52:34.854Z,100139.22
2023-02-13T10:55:24.999Z,100125.25
2023-02-13T10:58:08.773Z,100132.47
2023-02-13T11:00:43.142Z,100137.91
2023-02-13T11:03:19.854Z,100138.81
2023-02-13T11:05:48.124Z,100127.47
2023-02-13T11:08:22.871Z,100116.84
2023-02-13T11:10:51.862Z,100118.22
2023-02-13T11:13:22.596Z,100105.69
2023-02-13T11:16:04.120Z,100117.06
2023-02-13T11:18:35.245Z,100106.88
2023-02-13T11:21:09.222Z,100100.00
2023-02-13T11:23:47.655Z,100101.91
2023-02-13T11:26:23.681Z,100100.47
2023-02-13T11:28:56.479Z,100101.25
2023-02-13T11:31:29.815Z,100100.97
2023-02-13T11:33:59.659Z,100088.13
2023-02-13T11:36:30.250Z,100098.47
2023-02-13T11:39:07.601Z,100089.22
2023-02-13T11:41:43.490Z,100094.47
2023-02-13T11:44:25.661Z,100104.16
2023-02-13T11:46:56.383Z,100081.19
2023-02-13T11:49:26.820Z,100090.88
2023-02-13T11:51:57.262Z,100094.47
2023-02-13T11:54:32.094Z,100091.91
2023-02-13T11:57:04.818Z,100090.38
2023-02-13T11:59:41.441Z,100090.56
2023-02-13T12:02:20.009Z,100085.47
2023-02-13T12:04:50.671Z,100080.63
2023-02-13T12:07:23.460Z,100080.88
2023-02-13T12:09:59.747Z,100075.88
2023-02-13T12:12:35.318Z,100072.53
2023-02-13T12:15:16.931Z,100067.41
2023-02-13T12:17:47.923Z,100070.13
2023-02-13T12:20:20.662Z,100049.81
2023-02-13T12:23:05.047Z,100061.16
2023-02-13T12:25:41.151Z,100051.97
2023-02-13T12:28:14.382Z,100046.84
2023-02-13T12:31:15.882Z,100037.66
2023-02-13T12:34:05.604Z,100035.91
2023-02-13T12:36:41.117Z,100030.91
2023-02-13T12:39:19.714Z,100034.41
2023-02-13T12:42:02.394Z,100023.34
2023-02-13T12:44:56.302Z,100025.19
2023-02-13T12:47:29.600Z,100011.59
2023-02-13T12:50:22.281Z,100004.03
2023-02-13T12:53:10.357Z,100010.19
2023-02-13T12:56:12.596Z,100015.34
2023-02-13T12:59:09.513Z,100013.69
2023-02-13T13:02:09.532Z,100006.19
2023-02-13T13:04:52.150Z,100004.63
2023-02-13T13:07:42.200Z,100001.25
2023-02-13T13:10:46.484Z,100002.97
2023-02-13T13:13:26.198Z,99999.63
2023-02-13T13:16:04.842Z,99995.50
2023-02-13T13:18:44.605Z,99994.59
2023-02-13T13:21:23.717Z,99996.41
2023-02-13T13:24:00.744Z,99988.94
2023-02-13T13:26:37.559Z,99983.69
2023-02-13T13:29:08.129Z,99995.63
2023-02-13T13:31:39.198Z,99992.16
2023-02-13T13:34:15.122Z,99985.25
2023-02-13T13:36:48.902Z,99985.22
2023-02-13T13:39:29.225Z,99982.81
2023-02-13T13:42:08.415Z,99981.19
2023-02-13T13:45:02.392Z,99986.38
2023-02-13T13:47:47.342Z,99985.63
2023-02-13T13:50:23.150Z,99990.75
2023-02-13T13:53:09.833Z,99980.50
2023-02-13T13:56:08.548Z,99977.25
2023-02-13T13:58:40.840Z,99977.28
2023-02-13T14:01:29.258Z,99972.09
2023-02-13T14:04:02.330Z,99978.88
2023-02-13T14:07:09.384Z,99972.16
2023-02-13T14:09:40.564Z,99965.28
2023-02-13T14:12:38.445Z,99958.44
2023-02-13T14:15:07.105Z,99966.19
2023-02-13T14:18:08.241Z,99968.84
2023-02-13T14:20:42.810Z,99967.03
2023-02-13T14:23:24.439Z,99961.97
2023-02-13T14:25:52.816Z,99963.72
2023-02-13T14:28:26.217Z,99966.97
2023-02-13T14:31:07.260Z,99972.13
2023-02-13T14:33:36.433Z,99973.97
2023-02-13T14:36:18.702Z,99975.50
2023-02-13T14:38:57.313Z,99976.50
2023-02-13T14:41:47.621Z,99981.56
2023-02-13T14:44:21.128Z,99965.13
2023-02-13T14:46:52.138Z,99968.44
2023-02-13T14:49:25.738Z,99966.97
2023-02-13T14:51:58.726Z,99964.94
2023-02-13T14:54:31.925Z,99977.75
2023-02-13T14:57:07.829Z,99963.22
2023-02-13T14:59:39.466Z,99968.44
2023-02-13T15:02:19.871Z,99965.84
2023-02-13T15:04:51.562Z,99966.03
2023-02-13T15:07:24.871Z,99961.81
2023-02-13T15:09:57.859Z,99969.34
2023-02-13T15:12:36.067Z,99964.88
2023-02-13T15:15:23.822Z,99960.41
2023-02-13T15:17:54.441Z,99956.00
2023-02-13T15:20:28.288Z,99963.47
2023-02-13T15:22:59.125Z,99966.66
2023-02-13T15:25:34.641Z,99963.06
2023-02-13T15:28:05.353Z,99962.03
2023-02-13T15:30:36.712Z,99948.16
2023-02-13T15:33:17.007Z,99960.03
2023-02-13T15:35:46.050Z,99946.50
2023-02-13T15:38:26.171Z,99962.72
2023-02-13T15:40:59.059Z,99972.88
2023-02-13T15:43:36.736Z,99945.16
2023-02-13T15:46:08.559Z,99954.50
2023-02-13T15:48:37.033Z,99954.28
2023-02-13T15:51:06.012Z,99946.50
2023-02-13T15:53:35.848Z,99955.66
2023-02-13T15:56:08.168Z,99964.09
2023-02-13T15:58:36.975Z,99961.28
2023-02-13T16:01:08.938Z,99961.91
2023-02-13T16:03:38.947Z,99954.03
2023-02-13T16:06:11.214Z,99949.84
2023-02-13T16:08:44.605Z,99963.50
2023-02-13T16:11:36.694Z,99959.13
2023-02-13T16:14:10.603Z,99951.97
2023-02-13T16:16:47.754Z,99957.88
2023-02-13T16:19:39.607Z,99955.06
2023-02-13T16:22:21.810Z,99972.84
2023-02-13T16:24:55.198Z,99956.97
2023-02-13T16:27:29.599Z,99980.75
2023-02-13T16:30:01.614Z,99977.13
2023-02-13T16:32:33.345Z,99981.88
2023-02-13T16:35:17.271Z,99976.50
2023-02-13T16:37:53.329Z,99983.94
2023-02-13T16:40:40.261Z,99986.31
2023-02-13T16:43:41.228Z,99987.63
2023-02-13T16:46:19.379Z,99981.94
2023-02-13T16:48:50.308Z,99989.53
2023-02-13T16:51:32.144Z,99991.69
2023-02-13T16:54:02.450Z,99984.50
2023-02-13T16:56:39.129Z,100002.25
2023-02-13T16:59:25.698Z,99999.06
2023-02-13T17:02:17.850Z,100003.31
2023-02-13T17:04:48.329Z,99999.44
2023-02-13T17:07:21.225Z,100013.75
2023-02-13T17:10:02.431Z,100012.50
2023-02-13T17:12:39.498Z,100011.31
2023-02-13T17:15:13.686Z,100017.00
2023-02-13T17:17:42.733Z,100020.22
2023-02-13T17:20:17.746Z,100020.28
2023-02-13T17:22:48.123Z,100012.38
2023-02-13T17:25:22.623Z,100027.53
2023-02-13T17:27:54.280Z,100014.44
2023-02-13T17:30:24.559Z,100023.97
2023-02-13T17:32:58.736Z,100025.38
2023-02-13T17:35:28.323Z,100014.84
2023-02-13T17:37:57.344Z,100018.00
2023-02-13T17:40:28.945Z,100017.00
2023-02-13T17:43:01.000Z,100014.25
2023-02-13T17:45:31.283Z,100025.00
2023-02-13T17:48:00.957Z,100017.16
2023-02-13T17:50:31.515Z,100020.97
2023-02-13T17:53:07.471Z,100029.66
2023-02-13T17:55:37.619Z,100028.34
2023-02-13T17:58:07.971Z,100023.06
2023-02-13T18:00:38.347Z,100026.25
2023-02-13T18:03:06.331Z,100024.56
2023-02-13T18:05:35.238Z,100030.59
2023-02-13T18:08:06.807Z,100038.13
2023-02-13T18:10:38.026Z,100043.09
2023-02-13T18:13:13.365Z,100042.84
2023-02-13T18:15:44.653Z,100049.47
2023-02-13T18:18:14.425Z,100040.00
2023-02-13T18:20:43.569Z,100049.09
2023-02-13T18:23:12.136Z,100038.50
2023-02-13T18:25:40.872Z,100046.16
2023-02-13T18:28:13.613Z,100050.13
2023-02-13T18:30:50.543Z,100051.59
2023-02-13T18:33:19.812Z,100046.31
2023-02-13T18:35:49.298Z,100051.28
2023-02-13T18:38:18.604Z,100049.41
2023-02-13T18:40:47.380Z,100049.97
2023-02-13T18:43:17.781Z,100048.25
2023-02-13T18:45:46.787Z,100051.63
2023-02-13T18:48:14.954Z,100050.59
2023-02-13T18:50:44.142Z,100051.84
2023-02-13T18:53:12.678Z,100042.09
2023-02-13T18:55:41.074Z,100057.81
2023-02-13T18:58:09.624Z,100047.06
2023-02-13T19:00:39.331Z,100054.75
2023-02-13T19:03:09.087Z,100051.94
2023-02-13T19:05:42.172Z,100055.72
2023-02-13T19:08:10.868Z,100058.69
2023-02-13T19:10:39.340Z,100053.97
2023-02-13T19:13:08.124Z,100054.47
2023-02-13T19:15:39.361Z,100056.06
2023-02-13T19:18:07.635Z,100062.81
2023-02-13T19:20:38.634Z,100064.13
2023-02-13T19:23:11.865Z,100073.34
2023-02-13T19:25:41.836Z,100057.00
2023-02-13T19:28:11.433Z,100058.56
2023-02-13T19:30:45.385Z,100061.34
2023-02-13T19:33:15.830Z,100062.00
2023-02-13T19:35:48.481Z,100066.16
2023-02-13T19:38:17.173Z,100067.03
2023-02-13T19:40:46.266Z,100071.38
2023-02-13T19:43:16.181Z,100079.88
2023-02-13T19:45:51.351Z,100081.13
2023-02-13T19:48:23.140Z,100073.75
2023-02-13T19:50:53.891Z,100078.81
2023-02-13T19:53:23.949Z,100084.13
2023-02-13T19:56:05.741Z,100087.47
2023-02-13T19:58:37.869Z,100083.22
2023-02-13T20:01:13.335Z,100088.84
2023-02-13T20:03:42.430Z,100077.94
2023-02-13T20:06:14.232Z,100081.47
2023-02-13T20:08:43.208Z,100074.66
2023-02-13T20:11:13.380Z,100072.00
2023-02-13T20:13:42.652Z,100078.06
2023-02-13T20:16:14.532Z,100082.66
2023-02-13T20:18:43.131Z,100076.34
2023-02-13T20:21:13.571Z,100075.75
2023-02-13T20:23:42.578Z,100069.03
2023-02-13T20:26:14.890Z,100066.47
2023-02-13T20:28:45.018Z,100065.78
2023-02-13T20:31:17.000Z,100067.28
2023-02-13T20:33:46.272Z,100065.66
2023-02-13T20:36:16.503Z,100065.72
2023-02-13T20:38:45.250Z,100056.78
2023-02-13T20:41:16.151Z,100053.84
2023-02-13T20:43:45.914Z,100053.22
2023-02-13T20:46:17.067Z,100047.06
2023-02-13T20:48:47.461Z,100057.69
2023-02-13T20:51:18.017Z,100038.06
2023-02-13T20:53:47.388Z,100055.34
2023-02-13T20:56:17.602Z,100052.94
2023-02-13T20:58:48.244Z,100042.34
2023-02-13T21:01:22.471Z,100051.34
2023-02-13T21:03:53.837Z,100053.78
2023-02-13T21:06:23.130Z,100056.84
2023-02-13T21:08:52.047Z,100065.25
2023-02-13T21:11:28.336Z,100043.53
2023-02-13T21:13:57.176Z,100068.59
2023-02-13T21:16:28.877Z,100050.50
2023-02-13T21:18:59.163Z,100060.19
2023-02-13T21:21:30.244Z,100047.97
2023-02-13T21:24:00.356Z,100052.41
2023-02-13T21:26:30.544Z,100055.72
2023-02-13T21:28:59.823Z,100045.66
2023-02-13T21:31:32.716Z,100044.81
2023-02-13T21:34:03.262Z,100040.66
2023-02-13T21:36:32.636Z,100046.44
2023-02-13T21:39:02.062Z,100041.53
2023-02-13T21:41:31.242Z,100029.81
2023-02-13T21:43:59.474Z,100033.72
2023-02-13T21:46:33.846Z,100033.59
2023-02-13T21:49:03.777Z,100025.31
2023-02-13T21:51:33.545Z,100021.88
2023-02-13T21:54:03.907Z,100030.38
2023-02-13T21:56:34.230Z,100033.38
2023-02-13T21:59:03.434Z,100031.88
2023-02-13T22:01:35.477Z,100032.94
2023-02-13T22:04:06.149Z,100031.22
2023-02-13T22:06:37.210Z,100026.47
2023-02-13T22:09:07.739Z,100023.88
2023-02-13T22:11:37.653Z,100031.63
2023-02-13T22:14:07.899Z,100023.66
2023-02-13T22:16:39.700Z,100017.78
2023-02-13T22:19:08.945Z,100028.28
2023-02-13T22:21:37.513Z,100035.78
2023-02-13T22:24:06.224Z,100028.00
2023-02-13T22:26:37.874Z,100028.81
2023-02-13T22:29:09.028Z,100036.28
2023-02-13T22:31:40.123Z,100027.91
2023-02-13T22:34:13.840Z,100031.47
2023-02-13T22:36:43.305Z,100032.22
2023-02-13T22:39:13.461Z,100035.94
2023-02-13T22:41:46.024Z,100042.09
2023-02-13T22:44:14.420Z,100042.00
2023-02-13T22:46:45.438Z,100044.75
2023-02-13T22:49:14.134Z,100042.25
2023-02-13T22:51:42.619Z,100044.63
2023-02-13T22:54:11.777Z,100030.00
2023-02-13T22:56:40.010Z,100019.72
2023-02-13T22:59:08.491Z,100028.41
2023-02-13T23:01:37.392Z,100018.19
2023-02-13T23:04:07.230Z,100025.06
2023-02-13T23:06:35.736Z,100034.75
2023-02-13T23:09:03.816Z,100031.53
2023-02-13T23:11:49.733Z,100040.81
2023-02-13T23:14:17.766Z,100022.13
2023-02-13T23:17:03.816Z,100027.38
2023-02-13T23:19:33.331Z,100012.66
2023-02-13T23:22:01.813Z,100019.47
2023-02-13T23:24:30.841Z,100021.66
2023-02-13T23:26:59.203Z,100017.59
2023-02-13T23:29:28.991Z,100015.59
2023-02-13T23:31:57.304Z,100010.09
2023-02-13T23:34:25.518Z,100008.19
2023-02-13T23:36:55.128Z,100020.00
2023-02-13T23:39:24.730Z,100017.59
2023-02-13T23:41:52.902Z,100015.31
2023-02-13T23:44:21.247Z,100016.34
2023-02-13T23:46:49.447Z,100013.13
2023-02-13T23:49:17.970Z,100021.69
2023-02-13T23:51:46.038Z,100014.81
2023-02-13T23:54:17.617Z,100015.75
2023-02-13T23:56:46.306Z,99994.94
2023-02-13T23:59:14.368Z,100021.69
